Time;durP1;ratioP1;P1;durP2;ratioP2;P2;SDS_P1;SDS_P2;PMS_P1;PMS_P2;Temp;Humidity;BMP_temperature;BMP_pressure;BME280_temperature;BME280_humidity;BME280_pressure;Samples;Min_cycle;Max_cycle;Signal;HPM_P1;HPM_P2
2022/11/07 00:01:17;;;;;;;4.20;3.47;;;;;;;-145.48;100.00;64539.38;6045120;29;20148;-96
2022/11/07 00:04:19;;;;;;;6.68;3.80;;;;;;;-145.48;100.00;64539.38;6054702;29;20044;-95
2022/11/07 00:07:21;;;;;;;7.65;3.72;;;;;;;-145.48;100.00;64539.38;6023152;29;20061;-96
2022/11/07 00:10:22;;;;;;;5.07;3.40;;;;;;;-145.48;100.00;64539.38;6041321;29;20048;-96
2022/11/07 00:13:26;;;;;;;4.75;3.38;;;;;;;-145.48;100.00;64539.38;6045992;29;20726;-95
2022/11/07 00:16:28;;;;;;;6.82;3.72;;;;;;;-145.48;100.00;64539.38;6044134;29;20778;-95
2022/11/07 00:19:30;;;;;;;4.25;3.50;;;;;;;-145.48;100.00;64539.38;6047758;29;20052;-95
2022/11/07 00:22:31;;;;;;;4.78;3.50;;;;;;;-145.48;100.00;64539.38;6048456;29;20045;-95
2022/11/07 00:25:33;;;;;;;6.47;3.78;;;;;;;-145.48;100.00;64539.38;6057588;29;20411;-95
2022/11/07 00:28:37;;;;;;;4.03;2.95;;;;;;;-145.48;100.00;64539.38;6054715;29;20127;-95
2022/11/07 00:31:39;;;;;;;5.07;3.28;;;;;;;-145.48;100.00;64539.38;6043013;29;20050;-95
2022/11/07 00:34:40;;;;;;;6.43;3.40;;;;;;;-145.48;100.00;64539.38;6041105;29;20121;-95
2022/11/07 00:37:42;;;;;;;4.32;3.17;;;;;;;-145.48;100.00;64539.38;6055371;29;20040;-95
2022/11/07 00:40:55;;;;;;;4.13;2.92;;;;;;;-145.48;100.00;64539.38;6052064;29;20085;-96
2022/11/07 00:43:57;;;;;;;4.30;2.90;;;;;;;-145.48;100.00;64539.38;6052533;29;20045;-95
2022/11/07 00:46:59;;;;;;;4.25;2.80;;;;;;;-145.48;100.00;64539.38;6048580;29;20041;-95
2022/11/07 00:50:01;;;;;;;3.17;2.47;;;;;;;-145.48;100.00;64539.38;6057748;29;20049;-96
2022/11/07 00:53:03;;;;;;;3.45;2.53;;;;;;;-145.48;100.00;64539.38;6064184;29;20048;-95
2022/11/07 00:56:07;;;;;;;3.40;2.55;;;;;;;-145.48;100.00;64539.38;6057412;29;20111;-95
2022/11/07 00:59:09;;;;;;;4.10;2.90;;;;;;;-145.48;100.00;64539.38;6055471;29;20132;-95
2022/11/07 01:02:11;;;;;;;4.18;2.40;;;;;;;-145.48;100.00;64539.38;6042027;29;20061;-95
2022/11/07 01:05:13;;;;;;;4.03;2.85;;;;;;;-145.48;100.00;64539.38;6063997;29;20101;-95
2022/11/07 01:08:15;;;;;;;5.13;3.00;;;;;;;-145.48;100.00;64539.38;6050122;29;20212;-96
2022/11/07 01:11:17;;;;;;;4.05;2.47;;;;;;;-145.48;100.00;64539.38;6050340;29;20492;-95
2022/11/07 01:14:21;;;;;;;3.60;2.42;;;;;;;-145.48;100.00;64539.38;6050685;29;20567;-96
2022/11/07 01:17:23;;;;;;;5.57;2.90;;;;;;;-145.48;100.00;64539.38;6043930;29;20127;-95
2022/11/07 01:20:24;;;;;;;4.90;2.40;;;;;;;-145.48;100.00;64539.38;6039986;29;20061;-95
2022/11/07 01:23:26;;;;;;;4.38;2.45;;;;;;;-145.48;100.00;64539.38;6039060;29;20056;-95
2022/11/07 01:26:28;;;;;;;3.85;2.40;;;;;;;-145.48;100.00;64539.38;6042152;29;20052;-95
2022/11/07 01:29:30;;;;;;;3.65;2.25;;;;;;;-145.48;100.00;64539.38;6049805;29;20060;-95
2022/11/07 01:32:32;;;;;;;3.75;2.45;;;;;;;-145.48;100.00;64539.38;6054845;29;20050;-95
2022/11/07 01:35:35;;;;;;;3.20;2.25;;;;;;;-145.48;100.00;64539.38;6048283;29;20052;-95
2022/11/07 01:38:39;;;;;;;2.75;2.05;;;;;;;-145.48;100.00;64539.38;6050909;29;20578;-95
2022/11/07 01:41:41;;;;;;;4.00;2.28;;;;;;;-145.48;100.00;64539.38;6054323;29;20525;-95
2022/11/07 01:44:53;;;;;;;2.90;2.28;;;;;;;-145.48;100.00;64539.38;6043217;29;20037;-95
2022/11/07 01:47:57;;;;;;;2.60;1.90;;;;;;;-145.48;100.00;64539.38;6038328;29;20052;-95
2022/11/07 01:50:59;;;;;;;2.60;2.00;;;;;;;-145.48;100.00;64539.38;6047215;29;20088;-95
2022/11/07 01:54:03;;;;;;;3.20;2.42;;;;;;;-145.48;100.00;64539.38;6051451;29;20049;-95
2022/11/07 01:57:10;;;;;;;2.85;2.20;;;;;;;-145.48;100.00;64539.38;6043088;29;20052;-95
2022/11/07 02:00:16;;;;;;;4.75;1.90;;;;;;;-145.48;100.00;64539.38;6049993;29;20726;-95
2022/11/07 02:03:20;;;;;;;3.13;1.90;;;;;;;-145.48;100.00;64539.38;6041906;29;20056;-95
2022/11/07 02:06:41;;;;;;;2.55;1.92;;;;;;;-145.48;100.00;64539.38;6049878;29;20049;-95
2022/11/07 02:09:43;;;;;;;;;;;;;;;-145.48;100.00;64539.38;6056740;29;20423;-95
2022/11/07 02:12:45;;;;;;;2.75;2.25;;;;;;;-145.48;100.00;64539.38;6031768;29;19955;-94
2022/11/07 02:15:46;;;;;;;2.63;2.00;;;;;;;-145.48;100.00;64539.38;6042846;29;20088;-95
2022/11/07 02:18:48;;;;;;;2.58;2.30;;;;;;;-145.48;100.00;64539.38;6043891;29;20049;-95
2022/11/07 02:22:25;;;;;;;3.25;2.40;;;;;;;-145.48;100.00;64539.38;6024964;29;20076;-95
2022/11/07 02:25:28;;;;;;;1.75;1.65;;;;;;;-145.48;100.00;64539.38;6043655;29;20052;-95
2022/11/07 02:28:33;;;;;;;2.63;1.80;;;;;;;-145.48;100.00;64539.38;6043787;29;20064;-95
2022/11/07 02:31:35;;;;;;;1.92;1.67;;;;;;;-145.48;100.00;64539.38;6062990;29;20052;-95
2022/11/07 02:34:37;;;;;;;2.50;1.58;;;;;;;-145.48;100.00;64539.38;6051210;29;20045;-94
2022/11/07 02:37:39;;;;;;;2.97;1.40;;;;;;;-145.48;100.00;64539.38;6073305;29;20045;-95
2022/11/07 02:40:44;;;;;;;3.22;1.77;;;;;;;-145.48;100.00;64539.38;6061180;29;20420;-95
2022/11/07 02:43:54;;;;;;;3.15;1.63;;;;;;;-145.48;100.00;64539.38;6051815;29;20083;-95
2022/11/07 02:46:56;;;;;;;4.55;1.67;;;;;;;-145.48;100.00;64539.38;6052012;29;20043;-95
2022/11/07 02:49:58;;;;;;;2.25;1.63;;;;;;;-145.48;100.00;64539.38;6060869;29;20542;-95
2022/11/07 02:52:59;;;;;;;3.00;2.05;;;;;;;-145.48;100.00;64539.38;6037483;29;20049;-94
2022/11/07 02:56:02;;;;;;;2.42;1.58;;;;;;;-145.48;100.00;64539.38;6046719;29;20049;-95
2022/11/07 02:59:04;;;;;;;2.70;1.60;;;;;;;-145.48;100.00;64539.38;6065336;29;20487;-95
2022/11/07 03:02:05;;;;;;;6.47;2.15;;;;;;;-145.48;100.00;64539.38;6042203;29;20038;-94
2022/11/07 03:05:07;;;;;;;3.53;1.60;;;;;;;-145.48;100.00;64539.38;6045843;29;20520;-95
2022/11/07 03:08:09;;;;;;;4.57;1.98;;;;;;;-145.48;100.00;64539.38;6061446;29;20041;-94
2022/11/07 03:11:11;;;;;;;3.33;1.63;;;;;;;-145.48;100.00;64539.38;6053655;29;20060;-95
2022/11/07 03:14:13;;;;;;;3.67;1.60;;;;;;;-145.48;100.00;64539.38;6062180;29;20045;-95
2022/11/07 03:17:15;;;;;;;1.98;1.50;;;;;;;-145.48;100.00;64539.38;6043007;29;20051;-95
2022/11/07 03:20:17;;;;;;;4.18;1.92;;;;;;;-145.48;100.00;64539.38;6054145;29;20037;-95
2022/11/07 03:23:18;;;;;;;4.28;1.95;;;;;;;-145.48;100.00;64539.38;6056963;29;20049;-95
2022/11/07 03:26:20;;;;;;;3.00;1.92;;;;;;;-145.48;100.00;64539.38;6055495;29;20045;-95
2022/11/07 03:29:22;;;;;;;2.05;1.52;;;;;;;-145.48;100.00;64539.38;6056795;29;20287;-94
2022/11/07 03:32:23;;;;;;;4.78;1.65;;;;;;;-145.48;100.00;64539.38;6050795;29;20185;-94
2022/11/07 03:35:26;;;;;;;2.75;1.55;;;;;;;-145.48;100.00;64539.38;6060410;29;20040;-95
2022/11/07 03:38:28;;;;;;;8.55;2.10;;;;;;;-145.48;100.00;64539.38;6055456;29;20040;-91
2022/11/07 03:41:30;;;;;;;3.67;1.80;;;;;;;-145.48;100.00;64539.38;6056944;29;20096;-95
2022/11/07 03:44:31;;;;;;;2.25;1.70;;;;;;;-145.48;100.00;64539.38;6051862;29;20092;-93
2022/11/07 03:47:41;;;;;;;6.30;1.80;;;;;;;-145.48;100.00;64539.38;6043205;29;20538;-95
2022/11/07 03:50:43;;;;;;;2.67;1.55;;;;;;;-145.48;100.00;64539.38;6050496;29;20060;-95
2022/11/07 03:53:44;;;;;;;1.63;1.50;;;;;;;-145.48;100.00;64539.38;6046905;29;20361;-95
2022/11/07 03:56:46;;;;;;;3.13;1.48;;;;;;;-145.48;100.00;64539.38;6050792;29;20049;-95
2022/11/07 03:59:48;;;;;;;2.15;1.33;;;;;;;-145.48;100.00;64539.38;6051657;29;20045;-95
2022/11/07 04:02:50;;;;;;;2.58;1.30;;;;;;;-145.48;100.00;64539.38;6046368;29;20592;-95
2022/11/07 04:05:52;;;;;;;4.75;1.50;;;;;;;-145.48;100.00;64539.38;6053946;29;20457;-96
2022/11/07 04:08:54;;;;;;;3.40;1.40;;;;;;;-145.48;100.00;64539.38;6066287;29;20518;-95
2022/11/07 04:18:36;;;;;;;3.72;1.42;;;;;;;-145.48;100.00;64539.38;6044518;29;20123;-95
2022/11/07 04:21:38;;;;;;;3.10;1.35;;;;;;;-145.48;100.00;64539.38;6036815;29;20045;-95
2022/11/07 04:24:42;;;;;;;2.28;1.23;;;;;;;-145.48;100.00;64539.38;6035882;29;21001;-95
2022/11/07 04:27:46;;;;;;;3.72;1.60;;;;;;;-145.48;100.00;64539.38;6036518;29;20041;-95
2022/11/07 04:30:48;;;;;;;3.30;1.40;;;;;;;-145.48;100.00;64539.38;6044352;29;20099;-95
2022/11/07 04:33:50;;;;;;;2.72;1.40;;;;;;;-145.48;100.00;64539.38;6061260;29;20439;-94
2022/11/07 04:36:52;;;;;;;3.72;1.58;;;;;;;-145.48;100.00;64539.38;6059022;29;20052;-95
2022/11/07 04:39:54;;;;;;;2.45;1.20;;;;;;;-145.48;100.00;64539.38;6059435;29;20336;-95
2022/11/07 04:42:56;;;;;;;2.85;1.40;;;;;;;-145.48;100.00;64539.38;6051738;29;20145;-94
2022/11/07 04:45:57;;;;;;;3.60;1.27;;;;;;;-145.48;100.00;64539.38;6056507;29;20048;-94
2022/11/07 04:48:59;;;;;;;4.30;1.50;;;;;;;-145.48;100.00;64539.38;6045523;29;20045;-95
2022/11/07 04:52:01;;;;;;;2.67;1.38;;;;;;;-145.48;100.00;64539.38;6053463;29;20052;-94
2022/11/07 04:55:05;;;;;;;3.70;1.58;;;;;;;-145.48;100.00;64539.38;6048446;29;20045;-95
2022/11/07 04:58:08;;;;;;;3.08;1.30;;;;;;;-145.48;100.00;64539.38;6055372;29;20440;-95
2022/11/07 05:01:10;;;;;;;3.60;1.20;;;;;;;-145.48;100.00;64539.38;6034706;29;20049;-94
2022/11/07 05:04:12;;;;;;;2.45;1.50;;;;;;;-145.48;100.00;64539.38;6055712;29;20059;-95
2022/11/07 05:07:14;;;;;;;2.95;1.35;;;;;;;-145.48;100.00;64539.38;6063237;29;20067;-95
2022/11/07 05:10:25;;;;;;;4.22;1.40;;;;;;;-145.48;100.00;64539.38;6062229;29;20566;-94
2022/11/07 05:13:26;;;;;;;2.67;1.30;;;;;;;-145.48;100.00;64539.38;6037853;29;20128;-94
2022/11/07 05:16:30;;;;;;;3.03;1.30;;;;;;;-145.48;100.00;64539.38;6050901;29;20058;-95
2022/11/07 05:19:31;;;;;;;3.00;1.52;;;;;;;-145.48;100.00;64539.38;6050268;29;20167;-95
2022/11/07 05:25:56;;;;;;;3.88;1.55;;;;;;;-145.48;100.00;64539.38;6043949;29;20040;-93
2022/11/07 05:28:58;;;;;;;1.55;1.23;;;;;;;-145.48;100.00;64539.38;6048732;29;20068;-93
2022/11/07 05:32:00;;;;;;;3.72;1.30;;;;;;;-145.48;100.00;64539.38;6054955;29;20501;-94
2022/11/07 05:35:05;;;;;;;6.63;1.30;;;;;;;-145.48;100.00;64539.38;6054988;29;20044;-94
2022/11/07 05:38:07;;;;;;;3.15;1.27;;;;;;;-145.48;100.00;64539.38;6041358;29;20076;-94
2022/11/07 05:41:09;;;;;;;4.18;1.23;;;;;;;-145.48;100.00;64539.38;6031855;29;20695;-94
2022/11/07 05:44:11;;;;;;;1.85;1.35;;;;;;;-145.48;100.00;64539.38;6046912;29;20058;-94
2022/11/07 05:47:12;;;;;;;3.25;1.60;;;;;;;-145.48;100.00;64539.38;6035177;29;20056;-94
2022/11/07 05:50:14;;;;;;;2.97;1.42;;;;;;;-145.48;100.00;64539.38;6022303;29;20064;-93
2022/11/07 05:53:16;;;;;;;5.78;1.63;;;;;;;-145.48;100.00;64539.38;6028433;29;20446;-94
2022/11/07 05:56:19;;;;;;;2.38;1.10;;;;;;;-145.48;100.00;64539.38;6026620;29;20389;-94
2022/11/07 05:59:20;;;;;;;3.03;1.40;;;;;;;-145.48;100.00;64539.38;6028755;29;20053;-94
2022/11/07 06:02:23;;;;;;;1.80;1.20;;;;;;;-145.48;100.00;64539.38;6030714;29;20255;-94
2022/11/07 06:05:25;;;;;;;2.30;1.23;;;;;;;-145.48;100.00;64539.38;6057447;29;20478;-94
2022/11/07 06:08:27;;;;;;;2.85;1.20;;;;;;;-145.48;100.00;64539.38;6022441;29;20045;-94
2022/11/07 06:11:31;;;;;;;1.75;1.10;;;;;;;-145.48;100.00;64539.38;6044918;29;20057;-94
2022/11/07 06:14:33;;;;;;;2.33;1.15;;;;;;;-145.48;100.00;64539.38;6052055;29;20037;-94
2022/11/07 06:17:35;;;;;;;3.30;1.40;;;;;;;-145.48;100.00;64539.38;6058967;29;20041;-94
2022/11/07 06:20:37;;;;;;;2.80;1.20;;;;;;;-145.48;100.00;64539.38;6064286;29;20044;-94
2022/11/07 06:23:39;;;;;;;3.10;1.42;;;;;;;-145.48;100.00;64539.38;6066639;29;20530;-94
2022/11/07 06:26:40;;;;;;;2.10;1.35;;;;;;;-145.48;100.00;64539.38;6065244;29;20045;-94
2022/11/07 06:29:42;;;;;;;3.70;1.50;;;;;;;-145.48;100.00;64539.38;6050378;29;20052;-94
2022/11/07 06:32:44;;;;;;;2.70;1.38;;;;;;;-145.48;100.00;64539.38;6048387;29;20053;-93
2022/11/07 06:35:46;;;;;;;4.90;1.45;;;;;;;-145.48;100.00;64539.38;6047995;29;20045;-94
2022/11/07 06:38:51;;;;;;;3.42;1.40;;;;;;;-145.48;100.00;64539.38;6063342;29;20041;-94
2022/11/07 06:41:53;;;;;;;2.95;1.48;;;;;;;-145.48;100.00;64539.38;6057774;29;20048;-93
2022/11/07 06:44:55;;;;;;;2.30;1.38;;;;;;;-145.48;100.00;64539.38;6042158;29;20041;-94
2022/11/07 06:47:57;;;;;;;5.68;1.50;;;;;;;-145.48;100.00;64539.38;6053406;29;20052;-94
2022/11/07 06:51:00;;;;;;;4.50;1.52;;;;;;;-145.48;100.00;64539.38;6053920;29;20037;-94
2022/11/07 06:54:03;;;;;;;4.95;1.48;;;;;;;-145.48;100.00;64539.38;6048528;29;20135;-94
2022/11/07 06:57:05;;;;;;;2.90;1.10;;;;;;;-145.48;100.00;64539.38;6054668;29;20048;-94
2022/11/07 07:00:07;;;;;;;5.35;1.50;;;;;;;-145.48;100.00;64539.38;6067041;29;20525;-94
2022/11/07 07:03:10;;;;;;;2.10;1.40;;;;;;;-145.48;100.00;64539.38;6060945;29;20056;-94
2022/11/07 07:06:14;;;;;;;2.20;1.30;;;;;;;-145.48;100.00;64539.38;6062216;29;20511;-94
2022/11/07 07:09:16;;;;;;;2.38;1.17;;;;;;;-145.48;100.00;64539.38;6055745;29;20036;-94
2022/11/07 07:12:18;;;;;;;3.30;1.38;;;;;;;-145.48;100.00;64539.38;6057755;29;20060;-94
2022/11/07 07:15:21;;;;;;;5.10;1.45;;;;;;;-145.48;100.00;64539.38;6052827;29;20045;-93
2022/11/07 07:18:25;;;;;;;3.83;1.40;;;;;;;-145.48;100.00;64539.38;6053710;29;20285;-94
2022/11/07 07:21:29;;;;;;;5.00;1.45;;;;;;;-145.48;100.00;64539.38;6034291;29;20418;-94
2022/11/07 07:24:31;;;;;;;2.45;1.33;;;;;;;-145.48;100.00;64539.38;6040552;29;20407;-93
2022/11/07 07:27:33;;;;;;;4.15;1.45;;;;;;;-145.48;100.00;64539.38;6061014;29;20128;-93
2022/11/07 07:30:35;;;;;;;2.90;1.23;;;;;;;-145.48;100.00;64539.38;6050258;29;20063;-93
2022/11/07 07:33:37;;;;;;;2.78;1.25;;;;;;;-145.48;100.00;64539.38;6045565;29;20112;-93
2022/11/07 07:36:38;;;;;;;3.53;1.40;;;;;;;-145.48;100.00;64539.38;6046383;29;20050;-94
2022/11/07 07:39:40;;;;;;;3.47;1.30;;;;;;;-145.48;100.00;64539.38;6048429;29;20133;-94
2022/11/07 07:42:43;;;;;;;5.93;1.45;;;;;;;-145.48;100.00;64539.38;6051295;29;20030;-94
2022/11/07 07:45:45;;;;;;;1.77;1.30;;;;;;;-145.48;100.00;64539.38;6056098;29;20088;-94
2022/11/07 07:48:47;;;;;;;3.40;1.00;;;;;;;-145.48;100.00;64539.38;6058793;29;20041;-94
2022/11/07 07:51:49;;;;;;;2.05;1.38;;;;;;;-145.48;100.00;64539.38;6063141;29;20072;-94
2022/11/07 07:54:51;;;;;;;4.57;1.52;;;;;;;-145.48;100.00;64539.38;6042972;29;20045;-94
2022/11/07 07:57:52;;;;;;;3.83;1.33;;;;;;;-145.48;100.00;64539.38;6053607;29;20071;-94
2022/11/07 08:01:02;;;;;;;2.45;1.20;;;;;;;-145.48;100.00;64539.38;6054119;29;20131;-94
2022/11/07 08:04:04;;;;;;;4.93;1.25;;;;;;;-145.48;100.00;64539.38;6050677;29;20550;-94
2022/11/07 08:07:06;;;;;;;4.45;1.63;;;;;;;-145.48;100.00;64539.38;6061398;29;20120;-94
2022/11/07 08:10:08;;;;;;;2.75;1.20;;;;;;;-145.48;100.00;64539.38;6051393;29;20182;-93
2022/11/07 08:13:30;;;;;;;5.00;1.45;;;;;;;-145.48;100.00;64539.38;6038330;29;20056;-93
2022/11/07 08:16:32;;;;;;;3.45;1.50;;;;;;;-145.48;100.00;64539.38;6043671;29;20048;-94
2022/11/07 08:19:34;;;;;;;4.03;1.13;;;;;;;-145.48;100.00;64539.38;6057929;29;20049;-93
2022/11/07 08:22:36;;;;;;;3.45;1.42;;;;;;;-145.48;100.00;64539.38;6046705;29;20547;-94
2022/11/07 08:25:38;;;;;;;3.00;1.60;;;;;;;-145.48;100.00;64539.38;6050032;29;20053;-96
2022/11/07 08:28:40;;;;;;;3.08;1.30;;;;;;;-145.48;100.00;64539.38;6045771;29;20041;-96
2022/11/07 08:31:42;;;;;;;4.70;1.45;;;;;;;-145.48;100.00;64539.38;6045495;29;20049;-96
2022/11/07 08:34:44;;;;;;;2.17;1.20;;;;;;;-145.48;100.00;64539.38;6054526;29;20460;-96
2022/11/07 08:37:46;;;;;;;2.80;1.50;;;;;;;-145.48;100.00;64539.38;6052921;29;20033;-96
2022/11/07 08:40:49;;;;;;;4.45;1.13;;;;;;;-145.48;100.00;64539.38;6049528;29;20396;-96
2022/11/07 08:43:51;;;;;;;4.20;1.27;;;;;;;-145.48;100.00;64539.38;6051480;29;20124;-96
2022/11/07 08:46:54;;;;;;;3.35;1.30;;;;;;;-145.48;100.00;64539.38;6058450;29;20052;-96
2022/11/07 08:49:56;;;;;;;4.32;1.30;;;;;;;-145.48;100.00;64539.38;6065900;29;20053;-96
2022/11/07 08:52:58;;;;;;;4.60;1.30;;;;;;;-145.48;100.00;64539.38;6053128;29;20380;-96
2022/11/07 08:56:15;;;;;;;5.10;1.30;;;;;;;-145.48;100.00;64539.38;6043459;29;20056;-96
2022/11/07 08:59:17;;;;;;;1.90;1.00;;;;;;;-145.48;100.00;64539.38;6053650;29;20370;-96
2022/11/07 09:02:19;;;;;;;5.72;1.50;;;;;;;-145.48;100.00;64539.38;6046376;29;20128;-96
2022/11/07 09:05:41;;;;;;;2.70;1.17;;;;;;;-145.48;100.00;64539.38;6045066;29;20044;-96
2022/11/07 09:08:43;;;;;;;3.75;1.15;;;;;;;-145.48;100.00;64539.38;6050739;29;20349;-96
2022/11/07 09:11:47;;;;;;;3.95;1.48;;;;;;;-145.48;100.00;64539.38;6054548;29;20105;-96
2022/11/07 09:14:49;;;;;;;1.75;1.15;;;;;;;-145.48;100.00;64539.38;6046071;29;20100;-96
2022/11/07 09:17:51;;;;;;;4.53;1.48;;;;;;;-145.48;100.00;64539.38;6055424;29;20507;-96
2022/11/07 09:20:53;;;;;;;4.32;1.38;;;;;;;-145.48;100.00;64539.38;6048095;29;20049;-96
2022/11/07 09:23:55;;;;;;;4.03;1.58;;;;;;;-145.48;100.00;64539.38;6053367;29;20040;-96
2022/11/07 09:26:58;;;;;;;4.30;1.45;;;;;;;-145.48;100.00;64539.38;6050698;29;20041;-96
2022/11/07 09:30:00;;;;;;;4.05;1.08;;;;;;;-145.48;100.00;64539.38;6045826;29;20044;-96
2022/11/07 09:33:02;;;;;;;1.30;1.20;;;;;;;-145.48;100.00;64539.38;6056866;29;20045;-96
2022/11/07 09:36:05;;;;;;;4.32;1.10;;;;;;;-145.48;100.00;64539.38;6043523;29;20517;-96
2022/11/07 09:39:07;;;;;;;5.18;1.45;;;;;;;-145.48;100.00;64539.38;6044936;29;20153;-96
2022/11/07 09:42:18;;;;;;;4.13;1.30;;;;;;;-145.48;100.00;64539.38;6047151;29;20178;-96
2022/11/07 09:45:19;;;;;;;4.30;1.58;;;;;;;-145.48;100.00;64539.38;6046501;29;20380;-96
2022/11/07 09:48:25;;;;;;;7.90;1.50;;;;;;;-145.48;100.00;64539.38;6060150;29;20147;-96
2022/11/07 09:51:43;;;;;;;5.38;1.45;;;;;;;-145.48;100.00;64539.38;6041519;29;20190;-96
2022/11/07 09:54:50;;;;;;;4.55;1.20;;;;;;;-145.48;100.00;64539.38;6054533;29;20044;-96
2022/11/07 09:57:59;;;;;;;5.00;1.23;;;;;;;-145.48;100.00;64539.38;6049821;29;20296;-96
2022/11/07 10:01:10;;;;;;;4.35;1.30;;;;;;;-145.48;100.00;64539.38;6055775;29;20045;-96
2022/11/07 10:04:21;;;;;;;5.13;1.38;;;;;;;-145.48;100.00;64539.38;6049065;29;20514;-96
2022/11/07 10:07:43;;;;;;;6.25;1.35;;;;;;;-145.48;100.00;64539.38;6035195;29;20107;-96
2022/11/07 10:10:52;;;;;;;4.35;1.23;;;;;;;-145.48;100.00;64539.38;6054851;29;20403;-96
2022/11/07 10:14:00;;;;;;;2.28;1.27;;;;;;;-145.48;100.00;64539.38;6045506;29;20609;-96
2022/11/07 10:17:24;;;;;;;2.20;1.15;;;;;;;-145.48;100.00;64539.38;6032016;29;20083;-96
2022/11/07 10:20:32;;;;;;;4.10;1.17;;;;;;;-145.48;100.00;64539.38;6050175;29;20435;-96
2022/11/07 10:23:49;;;;;;;4.15;1.23;;;;;;;-145.48;100.00;64539.38;6049871;29;20152;-96
2022/11/07 10:26:52;;;;;;;4.55;1.70;;;;;;;-145.48;100.00;64539.38;6059980;29;20173;-96
2022/11/07 10:29:55;;;;;;;2.72;1.30;;;;;;;-145.48;100.00;64539.38;6042271;29;20510;-96
2022/11/07 10:33:16;;;;;;;6.07;1.63;;;;;;;-145.48;100.00;64539.38;6046442;29;20087;-96
2022/11/07 10:36:21;;;;;;;5.50;1.08;;;;;;;-145.48;100.00;64539.38;6049349;29;20044;-96
2022/11/07 10:39:23;;;;;;;3.90;1.20;;;;;;;-145.48;100.00;64539.38;6064561;29;20052;-96
2022/11/07 10:42:29;;;;;;;4.38;1.20;;;;;;;-145.48;100.00;64539.38;6055777;29;20040;-96
2022/11/07 10:45:31;;;;;;;3.75;1.17;;;;;;;-145.48;100.00;64539.38;6063968;29;20419;-96
2022/11/07 10:48:33;;;;;;;3.85;1.40;;;;;;;-145.48;100.00;64539.38;6054126;29;20405;-96
2022/11/07 10:51:42;;;;;;;2.42;1.02;;;;;;;-145.48;100.00;64539.38;6053144;29;20127;-96
2022/11/07 10:54:45;;;;;;;3.45;1.40;;;;;;;-145.48;100.00;64539.38;6054874;29;20523;-96
2022/11/07 10:58:02;;;;;;;5.03;1.23;;;;;;;-145.48;100.00;64539.38;6052653;29;20559;-96
2022/11/07 11:01:07;;;;;;;4.63;1.48;;;;;;;-145.48;100.00;64539.38;6058640;29;20060;-96
2022/11/07 11:04:20;;;;;;;5.18;1.40;;;;;;;-145.48;100.00;64539.38;6055776;29;20052;-96
2022/11/07 11:07:32;;;;;;;3.35;1.13;;;;;;;-145.48;100.00;64539.38;6059954;29;20048;-96
2022/11/07 11:10:38;;;;;;;3.10;1.40;;;;;;;-145.48;100.00;64539.38;6064034;29;20388;-96
2022/11/07 11:13:40;;;;;;;3.38;1.40;;;;;;;-145.48;100.00;64539.38;6049951;29;20048;-96
2022/11/07 11:16:42;;;;;;;4.20;1.30;;;;;;;-145.48;100.00;64539.38;6064060;29;20120;-96
2022/11/07 11:19:54;;;;;;;5.50;1.17;;;;;;;-145.48;100.00;64539.38;6054306;29;20049;-96
2022/11/07 11:22:56;;;;;;;3.85;1.48;;;;;;;-145.48;100.00;64539.38;6047313;29;20052;-96
2022/11/07 11:26:04;;;;;;;4.93;1.42;;;;;;;-145.48;100.00;64539.38;6051576;29;20088;-96
2022/11/07 11:29:10;;;;;;;4.75;1.10;;;;;;;-145.48;100.00;64539.38;6055262;29;20119;-96
2022/11/07 11:32:36;;;;;;;3.25;1.20;;;;;;;-145.48;100.00;64539.38;6045533;29;20052;-96
2022/11/07 11:36:07;;;;;;;5.25;1.70;;;;;;;-145.48;100.00;64539.38;6052414;29;20056;-96
2022/11/07 11:39:31;;;;;;;4.53;1.75;;;;;;;-145.48;100.00;64539.38;6063600;29;20040;-96
2022/11/07 11:42:47;;;;;;;3.47;1.27;;;;;;;-145.48;100.00;64539.38;6058729;29;20491;-96
2022/11/07 11:46:09;;;;;;;6.82;1.17;;;;;;;-145.48;100.00;64539.38;6039573;29;20492;-96
2022/11/07 11:49:18;;;;;;;5.18;1.00;;;;;;;-145.48;100.00;64539.38;6042271;29;20349;-96
2022/11/07 11:52:22;;;;;;;2.85;1.20;;;;;;;-145.48;100.00;64539.38;6050076;29;20045;-96
2022/11/07 11:55:34;;;;;;;2.47;1.15;;;;;;;-145.48;100.00;64539.38;6036331;29;20038;-96
2022/11/07 11:58:57;;;;;;;3.10;1.20;;;;;;;-145.48;100.00;64539.38;6053170;29;20465;-96
2022/11/07 12:02:32;;;;;;;5.05;1.23;;;;;;;-145.48;100.00;64539.38;6047828;29;20515;-96
2022/11/07 12:05:58;;;;;;;9.00;1.75;;;;;;;-145.48;100.00;64539.38;6018039;29;20057;-96
2022/11/07 12:09:26;;;;;;;3.38;1.40;;;;;;;-145.48;100.00;64539.38;6022207;29;20057;-96
2022/11/07 12:12:36;;;;;;;5.55;1.25;;;;;;;-145.48;100.00;64539.38;5992014;29;20069;-96
2022/11/07 12:16:06;;;;;;;3.38;1.20;;;;;;;-145.48;100.00;64539.38;5995837;29;20064;-96
2022/11/07 12:19:14;;;;;;;4.40;1.20;;;;;;;-145.48;100.00;64539.38;5997313;29;20049;-96
2022/11/07 12:22:30;;;;;;;4.22;1.60;;;;;;;-145.48;100.00;64539.38;5973947;29;20054;-96
2022/11/07 12:25:48;;;;;;;5.72;1.67;;;;;;;-145.48;100.00;64539.38;6007436;29;20448;-96
2022/11/07 12:29:23;;;;;;;4.93;1.30;;;;;;;-145.48;100.00;64539.38;5995943;29;20077;-96
2022/11/07 12:32:50;;;;;;;2.55;1.17;;;;;;;-145.48;100.00;64539.38;6008923;29;20064;-96
2022/11/07 12:36:01;;;;;;;9.45;1.98;;;;;;;-145.48;100.00;64539.38;5992132;29;20137;-96
2022/11/07 12:39:23;;;;;;;3.25;1.50;;;;;;;-145.48;100.00;64539.38;6008925;29;20049;-96
2022/11/07 12:42:48;;;;;;;5.97;1.25;;;;;;;-145.48;100.00;64539.38;6012075;29;20073;-96
2022/11/07 12:46:04;;;;;;;5.78;1.30;;;;;;;-145.48;100.00;64539.38;6021295;29;20326;-96
2022/11/07 12:49:23;;;;;;;4.05;1.38;;;;;;;-145.48;100.00;64539.38;6037749;29;20574;-96
2022/11/07 12:53:01;;;;;;;7.63;1.70;;;;;;;-145.48;100.00;64539.38;6063022;29;20427;-95
2022/11/07 12:56:14;;;;;;;4.50;1.70;;;;;;;-145.48;100.00;64539.38;6053298;29;20055;-96
2022/11/07 12:59:25;;;;;;;4.97;1.50;;;;;;;-145.48;100.00;64539.38;6045612;29;20636;-96
2022/11/07 13:02:58;;;;;;;4.07;1.90;;;;;;;-145.48;100.00;64539.38;6034389;29;20064;-96
2022/11/07 13:06:38;;;;;;;6.95;2.45;;;;;;;-145.48;100.00;64539.38;6035605;29;20466;-96
2022/11/07 13:09:54;;;;;;;6.93;2.08;;;;;;;-145.48;100.00;64539.38;6049597;29;20135;-96
2022/11/07 13:13:15;;;;;;;2.90;1.50;;;;;;;-145.48;100.00;64539.38;6050751;29;20508;-96
2022/11/07 13:16:27;;;;;;;2.60;1.63;;;;;;;-145.48;100.00;64539.38;6044110;29;20049;-96
2022/11/07 13:19:32;;;;;;;2.47;1.67;;;;;;;-145.48;100.00;64539.38;6046968;29;20052;-94
2022/11/07 13:22:40;;;;;;;3.60;1.85;;;;;;;-145.48;100.00;64539.38;6058186;29;20499;-96
2022/11/07 13:25:43;;;;;;;4.03;1.38;;;;;;;-145.48;100.00;64539.38;6058509;29;20053;-96
2022/11/07 13:28:56;;;;;;;2.10;1.30;;;;;;;-145.48;100.00;64539.38;6057872;29;20049;-96
2022/11/07 13:32:17;;;;;;;4.15;1.40;;;;;;;-145.48;100.00;64539.38;6043285;29;20055;-96
2022/11/07 13:35:37;;;;;;;2.40;1.20;;;;;;;-145.48;100.00;64539.38;6052956;29;20419;-96
2022/11/07 13:38:47;;;;;;;5.83;1.63;;;;;;;-145.48;100.00;64539.38;6051714;29;20139;-96
2022/11/07 13:41:50;;;;;;;2.43;1.20;;;;;;;-145.48;100.00;64539.38;6041515;29;20330;-96
2022/11/07 13:44:55;;;;;;;3.38;1.30;;;;;;;-145.48;100.00;64539.38;6041650;29;20309;-96
2022/11/07 13:48:04;;;;;;;2.55;1.02;;;;;;;-145.48;100.00;64539.38;6035406;29;20099;-96
2022/11/07 13:51:27;;;;;;;2.05;1.00;;;;;;;-145.48;100.00;64539.38;6028994;29;20048;-96
2022/11/07 13:54:37;;;;;;;3.90;1.30;;;;;;;-145.48;100.00;64539.38;6037447;29;20186;-96
2022/11/07 13:58:02;;;;;;;2.92;1.00;;;;;;;-145.48;100.00;64539.38;6036338;29;20049;-96
2022/11/07 14:01:10;;;;;;;3.92;1.05;;;;;;;-145.48;100.00;64539.38;6034599;29;20072;-96
2022/11/07 14:04:15;;;;;;;2.83;1.05;;;;;;;-145.48;100.00;64539.38;6032350;29;20640;-96
2022/11/07 14:07:18;;;;;;;3.10;1.30;;;;;;;-145.48;100.00;64539.38;6034763;29;20049;-96
2022/11/07 14:10:48;;;;;;;3.30;1.55;;;;;;;-145.48;100.00;64539.38;6048200;29;20345;-96
2022/11/07 14:13:53;;;;;;;2.97;1.20;;;;;;;-145.48;100.00;64539.38;6048055;29;20059;-96
2022/11/07 14:17:01;;;;;;;4.32;1.20;;;;;;;-145.48;100.00;64539.38;6052307;29;20040;-96